Terminal Aerodrome Forecast
Issued by NWS

Home | Current Version | Previous Version | Text Only | Print | Product List | Glossary On
Versions: 1 2 3 4 5 6 7 8 9 10 11 12 13
000
FTUS45 KTWC 261138
TAFOLS
TAF
KOLS 261138Z 2612/2712 VRB03KT P6SM SCT250
     FM261800 22006KT P6SM BKN250
     FM262000 26008KT P6SM BKN250
     FM270200 20005KT P6SM BKN250
     FM270400 VRB03KT P6SM BKN250=

USA.gov is the U.S. government's official web portal to all federal, state and local government web resources and services.